sensor_id;sensor_type;location;lat;lon;timestamp;temperature;humidity
35127;DHT22;21300;52.006;5.798;2023-05-10T00:01:21;15.50;96.00
35127;DHT22;21300;52.006;5.798;2023-05-10T00:03:47;15.60;96.10
35127;DHT22;21300;52.006;5.798;2023-05-10T00:06:12;15.50;96.10
35127;DHT22;21300;52.006;5.798;2023-05-10T00:08:38;15.50;96.10
35127;DHT22;21300;52.006;5.798;2023-05-10T00:11:04;15.50;96.10
35127;DHT22;21300;52.006;5.798;2023-05-10T00:13:29;15.50;96.10
35127;DHT22;21300;52.006;5.798;2023-05-10T00:15:55;15.50;96.10
35127;DHT22;21300;52.006;5.798;2023-05-10T00:18:21;15.50;96.10
35127;DHT22;21300;52.006;5.798;2023-05-10T00:20:46;15.50;96.10
35127;DHT22;21300;52.006;5.798;2023-05-10T00:23:14;15.50;96.10
35127;DHT22;21300;52.006;5.798;2023-05-10T00:25:39;15.50;96.10
35127;DHT22;21300;52.006;5.798;2023-05-10T00:28:05;15.50;96.10
35127;DHT22;21300;52.006;5.798;2023-05-10T00:30:30;15.50;96.10
35127;DHT22;21300;52.006;5.798;2023-05-10T00:32:56;15.50;96.10
35127;DHT22;21300;52.006;5.798;2023-05-10T00:35:21;15.40;96.10
35127;DHT22;21300;52.006;5.798;2023-05-10T00:37:47;15.50;96.10
35127;DHT22;21300;52.006;5.798;2023-05-10T00:40:13;15.40;96.10
35127;DHT22;21300;52.006;5.798;2023-05-10T00:42:39;15.40;96.10
35127;DHT22;21300;52.006;5.798;2023-05-10T00:45:05;15.40;96.10
35127;DHT22;21300;52.006;5.798;2023-05-10T00:47:31;15.40;96.10
35127;DHT22;21300;52.006;5.798;2023-05-10T00:49:57;15.40;96.10
35127;DHT22;21300;52.006;5.798;2023-05-10T00:52:23;15.40;96.10
35127;DHT22;21300;52.006;5.798;2023-05-10T00:54:51;15.40;96.10
35127;DHT22;21300;52.006;5.798;2023-05-10T00:57:17;15.40;96.10
35127;DHT22;21300;52.006;5.798;2023-05-10T00:59:42;15.40;96.10
35127;DHT22;21300;52.006;5.798;2023-05-10T01:02:08;15.40;96.20
35127;DHT22;21300;52.006;5.798;2023-05-10T01:04:35;15.40;96.10
35127;DHT22;21300;52.006;5.798;2023-05-10T01:07:00;15.40;96.20
35127;DHT22;21300;52.006;5.798;2023-05-10T01:09:27;15.30;96.10
35127;DHT22;21300;52.006;5.798;2023-05-10T01:11:53;15.30;96.10
35127;DHT22;21300;52.006;5.798;2023-05-10T01:14:20;15.40;96.10
35127;DHT22;21300;52.006;5.798;2023-05-10T01:16:49;15.30;96.10
35127;DHT22;21300;52.006;5.798;2023-05-10T01:19:24;15.30;96.10
35127;DHT22;21300;52.006;5.798;2023-05-10T01:32:19;15.30;96.20
35127;DHT22;21300;52.006;5.798;2023-05-10T01:37:46;15.30;96.20
35127;DHT22;21300;52.006;5.798;2023-05-10T01:42:50;15.30;96.20
35127;DHT22;21300;52.006;5.798;2023-05-10T01:45:21;15.30;96.20
35127;DHT22;21300;52.006;5.798;2023-05-10T01:47:58;15.30;96.20
35127;DHT22;21300;52.006;5.798;2023-05-10T01:50:30;15.30;96.20
35127;DHT22;21300;52.006;5.798;2023-05-10T01:52:58;15.30;96.20
35127;DHT22;21300;52.006;5.798;2023-05-10T01:55:27;15.30;96.20
35127;DHT22;21300;52.006;5.798;2023-05-10T01:58:03;15.30;96.20
35127;DHT22;21300;52.006;5.798;2023-05-10T02:00:30;15.30;96.20
35127;DHT22;21300;52.006;5.798;2023-05-10T02:02:57;15.30;96.20
35127;DHT22;21300;52.006;5.798;2023-05-10T02:05:23;15.20;96.20
35127;DHT22;21300;52.006;5.798;2023-05-10T02:07:49;15.20;96.10
35127;DHT22;21300;52.006;5.798;2023-05-10T02:10:17;15.20;96.20
35127;DHT22;21300;52.006;5.798;2023-05-10T02:12:45;15.20;96.20
35127;DHT22;21300;52.006;5.798;2023-05-10T02:15:22;15.20;96.20
35127;DHT22;21300;52.006;5.798;2023-05-10T02:17:48;15.20;96.20
35127;DHT22;21300;52.006;5.798;2023-05-10T02:20:16;15.20;96.20
35127;DHT22;21300;52.006;5.798;2023-05-10T02:22:43;15.20;96.20
35127;DHT22;21300;52.006;5.798;2023-05-10T02:25:12;15.20;96.20
35127;DHT22;21300;52.006;5.798;2023-05-10T02:27:38;15.20;96.20
35127;DHT22;21300;52.006;5.798;2023-05-10T02:30:06;15.20;96.20
35127;DHT22;21300;52.006;5.798;2023-05-10T02:32:33;15.20;96.20
35127;DHT22;21300;52.006;5.798;2023-05-10T02:35:01;15.20;96.20
35127;DHT22;21300;52.006;5.798;2023-05-10T02:37:28;15.20;96.20
35127;DHT22;21300;52.006;5.798;2023-05-10T02:39:55;15.20;96.20
35127;DHT22;21300;52.006;5.798;2023-05-10T02:42:25;15.20;96.20
35127;DHT22;21300;52.006;5.798;2023-05-10T02:44:59;15.20;96.20
35127;DHT22;21300;52.006;5.798;2023-05-10T02:47:25;15.20;96.20
35127;DHT22;21300;52.006;5.798;2023-05-10T02:49:51;15.20;96.20
35127;DHT22;21300;52.006;5.798;2023-05-10T02:52:28;15.20;96.20
35127;DHT22;21300;52.006;5.798;2023-05-10T02:54:56;15.20;96.20
35127;DHT22;21300;52.006;5.798;2023-05-10T02:57:29;15.10;96.20
35127;DHT22;21300;52.006;5.798;2023-05-10T02:59:57;15.20;96.20
35127;DHT22;21300;52.006;5.798;2023-05-10T03:02:23;15.10;96.20
35127;DHT22;21300;52.006;5.798;2023-05-10T03:04:48;15.10;96.20
35127;DHT22;21300;52.006;5.798;2023-05-10T03:07:14;15.10;96.20
35127;DHT22;21300;52.006;5.798;2023-05-10T03:09:40;15.10;96.20
35127;DHT22;21300;52.006;5.798;2023-05-10T03:17:56;15.10;96.20
35127;DHT22;21300;52.006;5.798;2023-05-10T03:20:35;15.10;96.20
35127;DHT22;21300;52.006;5.798;2023-05-10T03:23:19;15.10;96.20
35127;DHT22;21300;52.006;5.798;2023-05-10T03:25:48;15.10;96.20
35127;DHT22;21300;52.006;5.798;2023-05-10T03:28:15;15.10;96.20
35127;DHT22;21300;52.006;5.798;2023-05-10T03:30:43;15.10;96.20
35127;DHT22;21300;52.006;5.798;2023-05-10T03:33:08;15.10;96.20
35127;DHT22;21300;52.006;5.798;2023-05-10T03:35:34;15.10;96.20
35127;DHT22;21300;52.006;5.798;2023-05-10T03:38:00;15.10;96.20
35127;DHT22;21300;52.006;5.798;2023-05-10T03:40:27;15.00;96.20
35127;DHT22;21300;52.006;5.798;2023-05-10T03:42:55;15.00;96.20
35127;DHT22;21300;52.006;5.798;2023-05-10T03:45:20;15.00;96.20
35127;DHT22;21300;52.006;5.798;2023-05-10T03:47:46;15.00;96.20
35127;DHT22;21300;52.006;5.798;2023-05-10T03:50:12;15.00;96.20
35127;DHT22;21300;52.006;5.798;2023-05-10T03:52:37;15.00;96.20
35127;DHT22;21300;52.006;5.798;2023-05-10T03:55:05;15.00;96.20
35127;DHT22;21300;52.006;5.798;2023-05-10T03:57:31;15.00;96.20
35127;DHT22;21300;52.006;5.798;2023-05-10T03:59:56;15.00;96.20
35127;DHT22;21300;52.006;5.798;2023-05-10T04:02:22;15.00;96.20
35127;DHT22;21300;52.006;5.798;2023-05-10T04:04:47;15.00;96.20
35127;DHT22;21300;52.006;5.798;2023-05-10T04:07:13;14.90;96.40
35127;DHT22;21300;52.006;5.798;2023-05-10T04:09:39;14.80;96.70
35127;DHT22;21300;52.006;5.798;2023-05-10T04:12:05;14.80;96.80
35127;DHT22;21300;52.006;5.798;2023-05-10T04:14:31;14.80;96.70
35127;DHT22;21300;52.006;5.798;2023-05-10T04:16:56;14.80;96.70
35127;DHT22;21300;52.006;5.798;2023-05-10T04:19:22;14.90;96.70
35127;DHT22;21300;52.006;5.798;2023-05-10T04:21:48;14.90;96.60
35127;DHT22;21300;52.006;5.798;2023-05-10T04:24:13;14.90;96.60
35127;DHT22;21300;52.006;5.798;2023-05-10T04:26:39;14.90;96.50
35127;DHT22;21300;52.006;5.798;2023-05-10T04:29:04;14.90;96.50
35127;DHT22;21300;52.006;5.798;2023-05-10T04:31:30;14.90;96.50
35127;DHT22;21300;52.006;5.798;2023-05-10T04:33:55;14.90;96.50
35127;DHT22;21300;52.006;5.798;2023-05-10T04:36:21;14.90;96.60
35127;DHT22;21300;52.006;5.798;2023-05-10T04:38:47;14.90;96.50
35127;DHT22;21300;52.006;5.798;2023-05-10T04:41:12;14.90;96.40
35127;DHT22;21300;52.006;5.798;2023-05-10T04:43:38;14.90;96.40
35127;DHT22;21300;52.006;5.798;2023-05-10T04:46:04;14.90;96.40
35127;DHT22;21300;52.006;5.798;2023-05-10T04:48:30;14.90;96.40
35127;DHT22;21300;52.006;5.798;2023-05-10T04:50:56;14.90;96.40
35127;DHT22;21300;52.006;5.798;2023-05-10T04:53:22;14.90;96.40
35127;DHT22;21300;52.006;5.798;2023-05-10T04:55:48;14.80;96.40
35127;DHT22;21300;52.006;5.798;2023-05-10T04:58:14;14.80;96.50
35127;DHT22;21300;52.006;5.798;2023-05-10T05:00:40;14.80;96.60
35127;DHT22;21300;52.006;5.798;2023-05-10T05:03:05;14.80;96.50
35127;DHT22;21300;52.006;5.798;2023-05-10T05:05:31;14.80;96.50
35127;DHT22;21300;52.006;5.798;2023-05-10T05:07:57;14.80;96.50
35127;DHT22;21300;52.006;5.798;2023-05-10T05:10:22;14.80;96.50
35127;DHT22;21300;52.006;5.798;2023-05-10T05:12:48;14.80;96.50
35127;DHT22;21300;52.006;5.798;2023-05-10T05:15:13;14.80;96.40
35127;DHT22;21300;52.006;5.798;2023-05-10T05:17:40;14.80;96.40
35127;DHT22;21300;52.006;5.798;2023-05-10T05:20:06;14.80;96.40
35127;DHT22;21300;52.006;5.798;2023-05-10T05:22:32;14.80;96.60
35127;DHT22;21300;52.006;5.798;2023-05-10T05:24:58;14.80;96.40
35127;DHT22;21300;52.006;5.798;2023-05-10T05:27:24;14.80;96.40
35127;DHT22;21300;52.006;5.798;2023-05-10T05:29:55;14.80;96.40
35127;DHT22;21300;52.006;5.798;2023-05-10T05:32:21;14.80;96.40
35127;DHT22;21300;52.006;5.798;2023-05-10T05:34:47;14.80;96.40
35127;DHT22;21300;52.006;5.798;2023-05-10T05:37:16;14.80;96.40
35127;DHT22;21300;52.006;5.798;2023-05-10T05:39:43;14.80;96.40
35127;DHT22;21300;52.006;5.798;2023-05-10T05:42:09;14.80;96.40
35127;DHT22;21300;52.006;5.798;2023-05-10T05:44:35;14.80;96.40
35127;DHT22;21300;52.006;5.798;2023-05-10T05:47:00;14.80;96.30
35127;DHT22;21300;52.006;5.798;2023-05-10T05:49:26;14.80;96.40
35127;DHT22;21300;52.006;5.798;2023-05-10T05:51:52;14.80;96.30
35127;DHT22;21300;52.006;5.798;2023-05-10T05:54:17;14.80;96.30
35127;DHT22;21300;52.006;5.798;2023-05-10T05:56:43;14.80;96.30
35127;DHT22;21300;52.006;5.798;2023-05-10T05:59:10;14.80;96.30
35127;DHT22;21300;52.006;5.798;2023-05-10T06:01:35;14.80;96.40
35127;DHT22;21300;52.006;5.798;2023-05-10T06:04:01;14.80;96.30
35127;DHT22;21300;52.006;5.798;2023-05-10T06:06:27;14.80;96.30
35127;DHT22;21300;52.006;5.798;2023-05-10T06:08:53;14.80;96.30
35127;DHT22;21300;52.006;5.798;2023-05-10T06:11:18;14.80;96.30
35127;DHT22;21300;52.006;5.798;2023-05-10T06:13:44;14.80;96.30
35127;DHT22;21300;52.006;5.798;2023-05-10T06:16:09;14.80;96.30
35127;DHT22;21300;52.006;5.798;2023-05-10T06:18:35;14.70;96.60
35127;DHT22;21300;52.006;5.798;2023-05-10T06:21:01;14.80;96.30
35127;DHT22;21300;52.006;5.798;2023-05-10T06:23:27;14.80;96.30
35127;DHT22;21300;52.006;5.798;2023-05-10T06:25:52;14.80;96.30
35127;DHT22;21300;52.006;5.798;2023-05-10T06:28:18;14.80;96.30
35127;DHT22;21300;52.006;5.798;2023-05-10T06:30:43;14.80;96.30
35127;DHT22;21300;52.006;5.798;2023-05-10T06:33:09;14.80;96.30
35127;DHT22;21300;52.006;5.798;2023-05-10T06:35:35;14.80;96.30
35127;DHT22;21300;52.006;5.798;2023-05-10T06:38:02;14.70;96.30
35127;DHT22;21300;52.006;5.798;2023-05-10T06:40:27;14.80;96.30
35127;DHT22;21300;52.006;5.798;2023-05-10T06:42:53;14.80;96.30
35127;DHT22;21300;52.006;5.798;2023-05-10T06:45:19;14.80;96.30
35127;DHT22;21300;52.006;5.798;2023-05-10T06:47:44;14.70;96.30
35127;DHT22;21300;52.006;5.798;2023-05-10T06:50:11;14.70;96.20
35127;DHT22;21300;52.006;5.798;2023-05-10T06:52:37;14.80;96.30
35127;DHT22;21300;52.006;5.798;2023-05-10T06:55:03;14.80;96.30
35127;DHT22;21300;52.006;5.798;2023-05-10T06:57:29;14.80;96.20
35127;DHT22;21300;52.006;5.798;2023-05-10T06:59:55;14.80;96.30
35127;DHT22;21300;52.006;5.798;2023-05-10T07:02:23;14.80;96.30
35127;DHT22;21300;52.006;5.798;2023-05-10T07:04:49;14.80;96.30
35127;DHT22;21300;52.006;5.798;2023-05-10T07:07:15;14.80;96.30
35127;DHT22;21300;52.006;5.798;2023-05-10T07:09:41;14.80;96.30
35127;DHT22;21300;52.006;5.798;2023-05-10T07:12:07;14.80;96.30
35127;DHT22;21300;52.006;5.798;2023-05-10T07:14:32;14.80;96.30
35127;DHT22;21300;52.006;5.798;2023-05-10T07:16:58;14.80;96.30
35127;DHT22;21300;52.006;5.798;2023-05-10T07:19:23;14.80;96.30
35127;DHT22;21300;52.006;5.798;2023-05-10T07:21:49;14.80;96.20
35127;DHT22;21300;52.006;5.798;2023-05-10T07:24:16;14.80;96.20
35127;DHT22;21300;52.006;5.798;2023-05-10T07:26:41;14.80;96.30
35127;DHT22;21300;52.006;5.798;2023-05-10T07:29:07;14.80;96.20
35127;DHT22;21300;52.006;5.798;2023-05-10T07:31:32;14.80;96.20
35127;DHT22;21300;52.006;5.798;2023-05-10T07:33:58;14.80;96.20
35127;DHT22;21300;52.006;5.798;2023-05-10T07:36:24;14.80;96.20
35127;DHT22;21300;52.006;5.798;2023-05-10T07:38:49;14.80;96.20
35127;DHT22;21300;52.006;5.798;2023-05-10T07:41:15;14.80;96.20
35127;DHT22;21300;52.006;5.798;2023-05-10T07:43:41;14.80;96.20
35127;DHT22;21300;52.006;5.798;2023-05-10T07:46:06;14.80;96.20
35127;DHT22;21300;52.006;5.798;2023-05-10T07:48:32;14.80;96.50
35127;DHT22;21300;52.006;5.798;2023-05-10T07:50:58;14.80;96.20
35127;DHT22;21300;52.006;5.798;2023-05-10T07:53:26;14.80;96.10
35127;DHT22;21300;52.006;5.798;2023-05-10T07:55:54;14.80;96.20
35127;DHT22;21300;52.006;5.798;2023-05-10T07:58:22;14.80;96.10
35127;DHT22;21300;52.006;5.798;2023-05-10T08:00:47;14.80;96.20
35127;DHT22;21300;52.006;5.798;2023-05-10T08:03:14;14.90;96.20
35127;DHT22;21300;52.006;5.798;2023-05-10T08:05:40;14.90;96.10
35127;DHT22;21300;52.006;5.798;2023-05-10T08:08:06;14.80;96.10
35127;DHT22;21300;52.006;5.798;2023-05-10T08:10:31;14.80;96.10
35127;DHT22;21300;52.006;5.798;2023-05-10T08:12:57;14.90;96.10
35127;DHT22;21300;52.006;5.798;2023-05-10T08:15:24;14.90;96.10
35127;DHT22;21300;52.006;5.798;2023-05-10T08:17:51;14.90;96.10
35127;DHT22;21300;52.006;5.798;2023-05-10T08:20:16;14.90;96.10
35127;DHT22;21300;52.006;5.798;2023-05-10T08:22:45;14.90;96.10
35127;DHT22;21300;52.006;5.798;2023-05-10T08:25:10;14.90;96.10
35127;DHT22;21300;52.006;5.798;2023-05-10T08:27:36;14.90;96.10
35127;DHT22;21300;52.006;5.798;2023-05-10T08:30:01;14.90;96.10
35127;DHT22;21300;52.006;5.798;2023-05-10T08:32:27;14.90;96.10
35127;DHT22;21300;52.006;5.798;2023-05-10T08:34:53;14.90;96.00
35127;DHT22;21300;52.006;5.798;2023-05-10T08:37:18;14.90;96.00
35127;DHT22;21300;52.006;5.798;2023-05-10T08:39:44;14.90;96.00
35127;DHT22;21300;52.006;5.798;2023-05-10T08:42:16;14.90;96.00
35127;DHT22;21300;52.006;5.798;2023-05-10T08:44:43;14.90;96.00
35127;DHT22;21300;52.006;5.798;2023-05-10T08:47:10;14.90;96.00
35127;DHT22;21300;52.006;5.798;2023-05-10T08:49:37;14.90;96.00
35127;DHT22;21300;52.006;5.798;2023-05-10T08:52:03;15.00;95.90
35127;DHT22;21300;52.006;5.798;2023-05-10T08:54:32;15.00;95.90
35127;DHT22;21300;52.006;5.798;2023-05-10T08:56:58;15.00;95.90
35127;DHT22;21300;52.006;5.798;2023-05-10T08:59:24;14.90;95.90
35127;DHT22;21300;52.006;5.798;2023-05-10T09:01:50;15.00;95.90
35127;DHT22;21300;52.006;5.798;2023-05-10T09:04:16;15.00;95.80
35127;DHT22;21300;52.006;5.798;2023-05-10T09:06:42;15.00;95.90
35127;DHT22;21300;52.006;5.798;2023-05-10T09:09:08;15.00;95.80
35127;DHT22;21300;52.006;5.798;2023-05-10T09:11:33;15.00;95.80
35127;DHT22;21300;52.006;5.798;2023-05-10T09:14:00;15.00;95.80
35127;DHT22;21300;52.006;5.798;2023-05-10T09:16:26;15.00;95.80
35127;DHT22;21300;52.006;5.798;2023-05-10T09:18:51;15.00;95.80
35127;DHT22;21300;52.006;5.798;2023-05-10T09:21:19;15.10;95.80
35127;DHT22;21300;52.006;5.798;2023-05-10T09:23:46;15.00;95.70
35127;DHT22;21300;52.006;5.798;2023-05-10T09:26:12;15.10;95.70
35127;DHT22;21300;52.006;5.798;2023-05-10T09:28:57;15.10;95.70
35127;DHT22;21300;52.006;5.798;2023-05-10T09:31:23;15.10;95.70
35127;DHT22;21300;52.006;5.798;2023-05-10T09:33:50;15.10;95.70
35127;DHT22;21300;52.006;5.798;2023-05-10T09:36:17;15.10;95.70
35127;DHT22;21300;52.006;5.798;2023-05-10T09:38:51;15.20;95.70
35127;DHT22;21300;52.006;5.798;2023-05-10T09:41:23;15.10;95.60
35127;DHT22;21300;52.006;5.798;2023-05-10T09:43:49;15.20;95.70
35127;DHT22;21300;52.006;5.798;2023-05-10T09:46:15;15.20;95.90
35127;DHT22;21300;52.006;5.798;2023-05-10T09:48:46;15.20;95.60
35127;DHT22;21300;52.006;5.798;2023-05-10T09:51:22;15.20;95.70
35127;DHT22;21300;52.006;5.798;2023-05-10T09:53:48;15.20;95.60
35127;DHT22;21300;52.006;5.798;2023-05-10T09:56:36;15.20;95.60
35127;DHT22;21300;52.006;5.798;2023-05-10T09:59:03;15.30;95.60
35127;DHT22;21300;52.006;5.798;2023-05-10T10:01:29;15.30;95.50
35127;DHT22;21300;52.006;5.798;2023-05-10T10:03:54;15.30;95.50
35127;DHT22;21300;52.006;5.798;2023-05-10T10:06:23;15.30;95.40
35127;DHT22;21300;52.006;5.798;2023-05-10T10:08:49;15.30;95.40
35127;DHT22;21300;52.006;5.798;2023-05-10T10:11:16;15.30;95.40
35127;DHT22;21300;52.006;5.798;2023-05-10T10:13:41;15.40;95.40
35127;DHT22;21300;52.006;5.798;2023-05-10T10:16:08;15.40;95.40
35127;DHT22;21300;52.006;5.798;2023-05-10T10:18:36;15.40;95.30
35127;DHT22;21300;52.006;5.798;2023-05-10T10:21:07;15.40;95.40
35127;DHT22;21300;52.006;5.798;2023-05-10T10:23:35;15.40;95.30
35127;DHT22;21300;52.006;5.798;2023-05-10T10:26:02;15.40;95.20
35127;DHT22;21300;52.006;5.798;2023-05-10T10:28:44;15.50;95.20
35127;DHT22;21300;52.006;5.798;2023-05-10T10:33:56;15.50;95.10
35127;DHT22;21300;52.006;5.798;2023-05-10T10:36:24;15.50;95.20
35127;DHT22;21300;52.006;5.798;2023-05-10T10:38:56;15.50;95.20
35127;DHT22;21300;52.006;5.798;2023-05-10T10:49:50;15.60;95.20
35127;DHT22;21300;52.006;5.798;2023-05-10T10:55:01;15.60;95.20
35127;DHT22;21300;52.006;5.798;2023-05-10T10:57:27;15.70;95.20
35127;DHT22;21300;52.006;5.798;2023-05-10T11:02:55;15.60;95.10
35127;DHT22;21300;52.006;5.798;2023-05-10T11:10:34;15.70;95.20
35127;DHT22;21300;52.006;5.798;2023-05-10T11:13:07;15.80;95.10
35127;DHT22;21300;52.006;5.798;2023-05-10T11:15:35;15.80;95.10
35127;DHT22;21300;52.006;5.798;2023-05-10T11:21:01;15.90;95.20
35127;DHT22;21300;52.006;5.798;2023-05-10T11:26:12;15.90;95.20
35127;DHT22;21300;52.006;5.798;2023-05-10T11:28:42;15.90;95.10
35127;DHT22;21300;52.006;5.798;2023-05-10T11:31:07;15.90;95.10
35127;DHT22;21300;52.006;5.798;2023-05-10T11:33:44;16.00;95.10
35127;DHT22;21300;52.006;5.798;2023-05-10T11:36:18;16.00;95.00
35127;DHT22;21300;52.006;5.798;2023-05-10T11:38:45;16.00;95.00
35127;DHT22;21300;52.006;5.798;2023-05-10T11:41:11;16.00;95.00
35127;DHT22;21300;52.006;5.798;2023-05-10T11:43:41;16.10;95.00
35127;DHT22;21300;52.006;5.798;2023-05-10T11:46:11;16.10;95.00
35127;DHT22;21300;52.006;5.798;2023-05-10T11:48:40;16.10;94.90
35127;DHT22;21300;52.006;5.798;2023-05-10T11:51:11;16.10;94.80
35127;DHT22;21300;52.006;5.798;2023-05-10T11:53:37;16.10;94.90
35127;DHT22;21300;52.006;5.798;2023-05-10T11:56:08;16.20;94.90
35127;DHT22;21300;52.006;5.798;2023-05-10T11:58:34;16.20;94.70
35127;DHT22;21300;52.006;5.798;2023-05-10T12:01:00;16.20;94.70
35127;DHT22;21300;52.006;5.798;2023-05-10T12:03:30;16.20;94.70
35127;DHT22;21300;52.006;5.798;2023-05-10T12:05:57;16.30;94.70
35127;DHT22;21300;52.006;5.798;2023-05-10T12:08:28;16.30;94.70
35127;DHT22;21300;52.006;5.798;2023-05-10T12:11:04;16.30;94.60
35127;DHT22;21300;52.006;5.798;2023-05-10T12:13:30;16.30;94.50
35127;DHT22;21300;52.006;5.798;2023-05-10T12:15:59;16.40;94.60
35127;DHT22;21300;52.006;5.798;2023-05-10T12:18:25;16.40;94.50
35127;DHT22;21300;52.006;5.798;2023-05-10T12:20:53;16.40;94.40
35127;DHT22;21300;52.006;5.798;2023-05-10T12:23:20;16.40;94.40
35127;DHT22;21300;52.006;5.798;2023-05-10T12:25:46;16.40;94.40
35127;DHT22;21300;52.006;5.798;2023-05-10T12:28:12;16.50;94.30
35127;DHT22;21300;52.006;5.798;2023-05-10T12:30:38;16.50;94.20
35127;DHT22;21300;52.006;5.798;2023-05-10T12:33:09;16.50;94.20
35127;DHT22;21300;52.006;5.798;2023-05-10T12:40:55;16.60;94.00
35127;DHT22;21300;52.006;5.798;2023-05-10T12:43:21;16.60;94.00
35127;DHT22;21300;52.006;5.798;2023-05-10T12:45:47;16.60;94.00
35127;DHT22;21300;52.006;5.798;2023-05-10T12:48:14;16.70;93.90
35127;DHT22;21300;52.006;5.798;2023-05-10T12:50:40;16.70;93.90
35127;DHT22;21300;52.006;5.798;2023-05-10T12:53:06;16.70;93.80
35127;DHT22;21300;52.006;5.798;2023-05-10T12:55:31;16.70;93.70
35127;DHT22;21300;52.006;5.798;2023-05-10T12:57:57;16.80;93.80
35127;DHT22;21300;52.006;5.798;2023-05-10T13:00:22;16.80;93.50
35127;DHT22;21300;52.006;5.798;2023-05-10T13:02:48;16.80;93.40
35127;DHT22;21300;52.006;5.798;2023-05-10T13:05:14;16.90;93.50
35127;DHT22;21300;52.006;5.798;2023-05-10T13:07:40;16.90;93.50
35127;DHT22;21300;52.006;5.798;2023-05-10T13:10:06;16.90;93.50
35127;DHT22;21300;52.006;5.798;2023-05-10T13:12:32;17.00;93.50
35127;DHT22;21300;52.006;5.798;2023-05-10T13:14:58;17.00;93.40
35127;DHT22;21300;52.006;5.798;2023-05-10T13:17:25;17.00;93.40
35127;DHT22;21300;52.006;5.798;2023-05-10T13:19:51;17.00;93.30
35127;DHT22;21300;52.006;5.798;2023-05-10T13:22:16;17.10;93.20
35127;DHT22;21300;52.006;5.798;2023-05-10T13:24:42;17.10;93.20
35127;DHT22;21300;52.006;5.798;2023-05-10T13:27:08;17.10;93.20
35127;DHT22;21300;52.006;5.798;2023-05-10T13:29:34;17.10;93.10
35127;DHT22;21300;52.006;5.798;2023-05-10T13:31:59;17.10;93.10
35127;DHT22;21300;52.006;5.798;2023-05-10T13:34:25;17.20;93.00
35127;DHT22;21300;52.006;5.798;2023-05-10T13:36:51;17.20;92.90
35127;DHT22;21300;52.006;5.798;2023-05-10T13:39:16;17.20;93.10
35127;DHT22;21300;52.006;5.798;2023-05-10T13:41:42;17.20;93.00
35127;DHT22;21300;52.006;5.798;2023-05-10T13:44:08;17.20;93.00
35127;DHT22;21300;52.006;5.798;2023-05-10T13:46:33;17.20;93.00
35127;DHT22;21300;52.006;5.798;2023-05-10T13:48:59;17.20;92.90
35127;DHT22;21300;52.006;5.798;2023-05-10T13:51:24;17.20;92.90
35127;DHT22;21300;52.006;5.798;2023-05-10T13:53:50;17.20;93.00
35127;DHT22;21300;52.006;5.798;2023-05-10T13:56:15;17.30;93.00
35127;DHT22;21300;52.006;5.798;2023-05-10T13:58:41;17.30;93.00
35127;DHT22;21300;52.006;5.798;2023-05-10T14:01:07;17.30;93.00
35127;DHT22;21300;52.006;5.798;2023-05-10T14:03:33;17.30;93.00
35127;DHT22;21300;52.006;5.798;2023-05-10T14:05:59;17.30;92.90
35127;DHT22;21300;52.006;5.798;2023-05-10T14:08:24;17.30;93.00
35127;DHT22;21300;52.006;5.798;2023-05-10T14:10:52;17.30;93.00
35127;DHT22;21300;52.006;5.798;2023-05-10T14:13:18;17.30;93.00
35127;DHT22;21300;52.006;5.798;2023-05-10T14:15:43;17.30;93.10
35127;DHT22;21300;52.006;5.798;2023-05-10T14:18:09;17.30;92.90
35127;DHT22;21300;52.006;5.798;2023-05-10T14:20:35;17.20;93.20
35127;DHT22;21300;52.006;5.798;2023-05-10T14:23:00;17.20;93.30
35127;DHT22;21300;52.006;5.798;2023-05-10T14:25:26;17.20;93.30
35127;DHT22;21300;52.006;5.798;2023-05-10T14:27:52;17.20;93.30
35127;DHT22;21300;52.006;5.798;2023-05-10T14:30:20;17.20;93.30
35127;DHT22;21300;52.006;5.798;2023-05-10T14:32:45;17.20;93.30
35127;DHT22;21300;52.006;5.798;2023-05-10T14:35:11;17.20;93.30
35127;DHT22;21300;52.006;5.798;2023-05-10T14:37:38;17.20;93.70
35127;DHT22;21300;52.006;5.798;2023-05-10T14:40:04;17.20;93.30
35127;DHT22;21300;52.006;5.798;2023-05-10T14:42:30;17.20;93.40
35127;DHT22;21300;52.006;5.798;2023-05-10T14:44:56;17.20;93.40
35127;DHT22;21300;52.006;5.798;2023-05-10T14:47:22;17.20;93.40
35127;DHT22;21300;52.006;5.798;2023-05-10T14:49:47;17.20;93.40
35127;DHT22;21300;52.006;5.798;2023-05-10T14:52:13;17.20;93.40
35127;DHT22;21300;52.006;5.798;2023-05-10T14:54:39;17.20;93.50
35127;DHT22;21300;52.006;5.798;2023-05-10T14:57:06;17.20;93.50
35127;DHT22;21300;52.006;5.798;2023-05-10T14:59:32;17.20;93.90
35127;DHT22;21300;52.006;5.798;2023-05-10T15:01:58;17.20;93.50
35127;DHT22;21300;52.006;5.798;2023-05-10T15:04:24;17.20;93.50
35127;DHT22;21300;52.006;5.798;2023-05-10T15:06:49;17.20;93.50
35127;DHT22;21300;52.006;5.798;2023-05-10T15:09:15;17.20;93.50
35127;DHT22;21300;52.006;5.798;2023-05-10T15:11:41;17.20;93.50
35127;DHT22;21300;52.006;5.798;2023-05-10T15:14:07;17.20;93.50
35127;DHT22;21300;52.006;5.798;2023-05-10T15:16:33;17.20;93.50
35127;DHT22;21300;52.006;5.798;2023-05-10T15:18:58;17.20;93.50
35127;DHT22;21300;52.006;5.798;2023-05-10T15:21:24;17.10;93.40
35127;DHT22;21300;52.006;5.798;2023-05-10T15:23:49;17.20;93.50
35127;DHT22;21300;52.006;5.798;2023-05-10T15:26:15;17.20;93.40
35127;DHT22;21300;52.006;5.798;2023-05-10T15:28:40;17.10;93.40
35127;DHT22;21300;52.006;5.798;2023-05-10T15:31:06;17.10;93.40
35127;DHT22;21300;52.006;5.798;2023-05-10T15:33:32;17.10;93.40
35127;DHT22;21300;52.006;5.798;2023-05-10T15:35:58;17.20;93.50
35127;DHT22;21300;52.006;5.798;2023-05-10T15:38:24;17.10;93.40
35127;DHT22;21300;52.006;5.798;2023-05-10T15:40:49;17.10;93.50
35127;DHT22;21300;52.006;5.798;2023-05-10T15:43:15;17.10;93.50
35127;DHT22;21300;52.006;5.798;2023-05-10T15:45:41;17.10;93.50
35127;DHT22;21300;52.006;5.798;2023-05-10T15:48:07;17.10;93.50
35127;DHT22;21300;52.006;5.798;2023-05-10T15:50:32;17.10;93.50
35127;DHT22;21300;52.006;5.798;2023-05-10T15:52:58;17.20;93.50
35127;DHT22;21300;52.006;5.798;2023-05-10T15:55:23;17.20;93.80
35127;DHT22;21300;52.006;5.798;2023-05-10T15:57:49;17.20;93.50
35127;DHT22;21300;52.006;5.798;2023-05-10T16:00:16;17.20;93.10
35127;DHT22;21300;52.006;5.798;2023-05-10T16:02:42;17.20;93.10
35127;DHT22;21300;52.006;5.798;2023-05-10T16:05:08;17.20;93.10
35127;DHT22;21300;52.006;5.798;2023-05-10T16:07:34;17.10;93.10
35127;DHT22;21300;52.006;5.798;2023-05-10T16:09:59;17.20;93.20
35127;DHT22;21300;52.006;5.798;2023-05-10T16:12:29;17.10;93.20
35127;DHT22;21300;52.006;5.798;2023-05-10T16:14:55;17.20;93.30
35127;DHT22;21300;52.006;5.798;2023-05-10T16:17:21;17.20;93.30
35127;DHT22;21300;52.006;5.798;2023-05-10T16:19:47;17.20;93.30
35127;DHT22;21300;52.006;5.798;2023-05-10T16:22:13;17.20;92.80